createdAt,value
2019-04-30T00:01:58.979Z,35.13
2019-04-30T00:04:30.029Z,37.53
2019-04-30T00:07:00.075Z,35.27
2019-04-30T00:09:30.418Z,38.40
2019-04-30T00:12:01.265Z,33.77
2019-04-30T00:14:36.844Z,34.27
2019-04-30T00:17:02.138Z,34.13
2019-04-30T00:19:32.046Z,37.53
2019-04-30T00:22:01.520Z,35.43
2019-04-30T00:24:30.987Z,32.80
2019-04-30T00:27:00.390Z,39.13
2019-04-30T00:29:31.041Z,36.77
2019-04-30T00:32:04.474Z,40.13
2019-04-30T00:34:35.998Z,38.43
2019-04-30T00:37:07.370Z,39.50
2019-04-30T00:39:35.552Z,39.53
2019-04-30T00:42:05.092Z,37.00
2019-04-30T00:44:35.662Z,39.03
2019-04-30T00:47:08.311Z,38.10
2019-04-30T00:49:37.903Z,39.93
2019-04-30T00:52:07.238Z,42.63
2019-04-30T00:54:36.616Z,34.83
2019-04-30T00:57:07.673Z,38.40
2019-04-30T00:59:39.690Z,38.60
2019-04-30T01:02:20.233Z,39.50
2019-04-30T01:04:48.826Z,39.30
2019-04-30T01:07:18.599Z,37.03
2019-04-30T01:09:49.875Z,41.63
2019-04-30T01:12:25.510Z,33.70
2019-04-30T01:14:50.611Z,35.40
2019-04-30T01:17:20.034Z,35.63
2019-04-30T01:19:51.137Z,34.90
2019-04-30T01:22:27.725Z,37.00
2019-04-30T01:24:52.054Z,39.43
2019-04-30T01:27:21.481Z,34.17
2019-04-30T01:29:50.933Z,36.37
2019-04-30T01:32:21.162Z,34.83
2019-04-30T01:34:53.851Z,34.70
2019-04-30T01:37:28.672Z,37.17
2019-04-30T01:39:52.886Z,41.57
2019-04-30T01:42:22.194Z,37.13
2019-04-30T01:44:53.868Z,40.23
2019-04-30T01:47:27.710Z,43.97
2019-04-30T01:49:55.793Z,40.30
2019-04-30T01:52:29.181Z,41.07
2019-04-30T01:54:58.660Z,37.60
2019-04-30T01:57:29.867Z,36.73
2019-04-30T02:00:03.467Z,38.70
2019-04-30T02:02:34.513Z,42.93
2019-04-30T02:05:05.381Z,41.97
2019-04-30T02:07:34.748Z,41.00
2019-04-30T02:10:05.447Z,37.97
2019-04-30T02:12:34.812Z,39.40
2019-04-30T02:15:04.326Z,33.93
2019-04-30T02:17:33.723Z,42.60
2019-04-30T02:20:03.290Z,35.40
2019-04-30T02:22:32.639Z,30.93
2019-04-30T02:25:01.974Z,33.27
2019-04-30T02:27:31.344Z,32.90
2019-04-30T02:30:02.628Z,37.73
2019-04-30T02:32:31.826Z,41.67
2019-04-30T02:35:09.617Z,39.90
2019-04-30T02:37:59.574Z,42.93
2019-04-30T02:40:30.216Z,41.80
2019-04-30T02:43:01.773Z,42.87
2019-04-30T02:45:33.408Z,42.03
2019-04-30T02:48:04.274Z,39.13
2019-04-30T02:50:36.250Z,39.07
2019-04-30T02:53:19.911Z,41.47
2019-04-30T02:55:49.926Z,41.83
2019-04-30T02:58:21.077Z,39.43
2019-04-30T03:00:50.550Z,43.33
2019-04-30T03:03:20.384Z,46.63
2019-04-30T03:05:50.216Z,49.37
2019-04-30T03:08:19.943Z,49.47
2019-04-30T03:10:50.001Z,41.10
2019-04-30T03:13:20.603Z,40.30
2019-04-30T03:15:50.033Z,41.53
2019-04-30T03:18:23.777Z,44.87
2019-04-30T03:20:54.816Z,42.37
2019-04-30T03:23:24.112Z,48.77
2019-04-30T03:25:53.481Z,46.93
2019-04-30T03:28:22.825Z,47.33
2019-04-30T03:30:57.993Z,49.87
2019-04-30T03:33:23.442Z,57.20
2019-04-30T03:35:54.592Z,57.30
2019-04-30T03:38:23.878Z,56.23
2019-04-30T03:40:53.242Z,51.70
2019-04-30T03:43:22.592Z,48.40
2019-04-30T03:45:51.960Z,49.57
2019-04-30T03:48:21.207Z,53.53
2019-04-30T03:50:56.708Z,55.60
2019-04-30T03:53:21.740Z,54.53
2019-04-30T03:55:51.037Z,53.83
2019-04-30T03:58:21.466Z,58.90
2019-04-30T04:01:10.154Z,59.87
2019-04-30T04:04:00.195Z,52.20
2019-04-30T04:06:30.358Z,52.87
2019-04-30T04:09:01.302Z,43.00
2019-04-30T04:11:32.280Z,47.30
2019-04-30T04:14:01.674Z,51.33
2019-04-30T04:16:32.260Z,37.03
2019-04-30T04:19:02.890Z,42.53
2019-04-30T04:21:32.464Z,46.20
2019-04-30T04:24:01.830Z,46.07
2019-04-30T04:26:31.256Z,45.83
2019-04-30T04:29:00.608Z,49.03
2019-04-30T04:31:30.044Z,44.20
2019-04-30T04:34:00.066Z,47.73
2019-04-30T04:36:30.399Z,49.83
2019-04-30T04:39:00.222Z,52.87
2019-04-30T04:41:29.881Z,49.57
2019-04-30T04:44:00.083Z,49.27
2019-04-30T04:46:30.649Z,45.33
2019-04-30T04:49:00.446Z,47.27
2019-04-30T04:51:38.151Z,52.67
2019-04-30T04:54:03.324Z,47.73
2019-04-30T04:56:31.755Z,56.20
2019-04-30T04:59:01.130Z,49.87
2019-04-30T05:01:30.571Z,51.43
2019-04-30T05:03:59.889Z,53.10
2019-04-30T05:06:29.985Z,51.13
2019-04-30T05:09:01.637Z,56.07
2019-04-30T05:11:31.666Z,56.07
2019-04-30T05:14:01.358Z,57.97
2019-04-30T05:16:30.840Z,49.07
2019-04-30T05:19:01.202Z,50.63
2019-04-30T05:21:41.980Z,50.80
2019-04-30T05:24:02.329Z,62.27
2019-04-30T05:26:31.692Z,59.77
2019-04-30T05:29:00.973Z,51.73
2019-04-30T05:31:30.380Z,53.13
2019-04-30T05:33:59.600Z,52.43
2019-04-30T05:36:29.313Z,57.57
2019-04-30T05:38:58.882Z,61.27
2019-04-30T05:41:28.970Z,56.20
2019-04-30T05:43:59.172Z,59.30
2019-04-30T05:46:29.825Z,65.57
2019-04-30T05:48:59.562Z,71.97
2019-04-30T05:51:29.096Z,68.17
2019-04-30T05:53:59.248Z,65.97
2019-04-30T05:56:30.461Z,60.40
2019-04-30T05:59:01.024Z,59.13
2019-04-30T06:01:30.533Z,60.57
2019-04-30T06:03:59.900Z,55.53
2019-04-30T06:06:29.267Z,61.13
2019-04-30T06:09:06.582Z,63.23
2019-04-30T06:11:51.776Z,62.67
2019-04-30T06:14:25.397Z,62.83
2019-04-30T06:17:05.037Z,61.90
2019-04-30T06:19:34.640Z,61.07
2019-04-30T06:22:08.070Z,63.23
2019-04-30T06:24:36.001Z,54.63
2019-04-30T06:27:05.615Z,60.63
2019-04-30T06:29:36.761Z,57.37
2019-04-30T06:32:06.240Z,52.53
2019-04-30T06:34:36.061Z,49.70
2019-04-30T06:37:05.609Z,49.77
2019-04-30T06:39:38.578Z,53.30
2019-04-30T06:42:12.503Z,57.90
2019-04-30T06:44:41.899Z,52.10
2019-04-30T06:47:10.827Z,52.57
2019-04-30T06:49:40.312Z,51.67
2019-04-30T06:52:20.220Z,52.87
2019-04-30T06:54:40.828Z,46.53
2019-04-30T06:57:12.092Z,47.03
2019-04-30T06:59:42.729Z,51.20
2019-04-30T07:02:12.112Z,45.63
2019-04-30T07:04:41.524Z,48.80
2019-04-30T07:07:14.277Z,54.80
2019-04-30T07:09:53.157Z,53.07
2019-04-30T07:12:29.885Z,53.50
2019-04-30T07:14:59.181Z,55.00
2019-04-30T07:17:29.228Z,48.73
2019-04-30T07:19:59.719Z,59.47
2019-04-30T07:22:40.184Z,55.43
2019-04-30T07:25:00.369Z,57.00
2019-04-30T07:27:30.160Z,54.03
2019-04-30T07:30:00.722Z,55.13
2019-04-30T07:32:30.246Z,53.67
2019-04-30T07:34:59.703Z,52.97
2019-04-30T07:37:29.445Z,45.03
2019-04-30T07:39:59.044Z,42.73
2019-04-30T07:42:29.416Z,41.23
2019-04-30T07:45:00.763Z,43.00
2019-04-30T07:47:30.018Z,39.87
2019-04-30T07:50:00.640Z,39.03
2019-04-30T07:52:33.958Z,38.43
2019-04-30T07:55:01.453Z,38.80
2019-04-30T07:57:32.520Z,42.17
2019-04-30T08:00:02.143Z,38.33
2019-04-30T08:02:37.057Z,37.50
2019-04-30T08:05:10.316Z,33.97
2019-04-30T08:07:39.205Z,31.20
2019-04-30T08:10:09.917Z,37.27
2019-04-30T08:12:42.798Z,29.37
2019-04-30T08:15:11.941Z,26.57
2019-04-30T08:17:41.213Z,23.67
2019-04-30T08:20:10.938Z,23.73
2019-04-30T08:22:41.120Z,22.63
2019-04-30T08:25:10.644Z,24.67
2019-04-30T08:27:40.034Z,28.13
2019-04-30T08:30:21.416Z,22.77
2019-04-30T08:32:41.404Z,21.07
2019-04-30T08:35:10.786Z,21.47
2019-04-30T08:37:40.246Z,17.67
2019-04-30T08:40:10.147Z,20.27
2019-04-30T08:42:40.371Z,17.27
2019-04-30T08:45:10.399Z,20.73
2019-04-30T08:47:39.840Z,21.00
2019-04-30T08:50:10.660Z,20.83
2019-04-30T08:52:40.323Z,19.87
2019-04-30T08:55:16.277Z,20.07
2019-04-30T08:57:41.210Z,19.07
2019-04-30T09:00:11.805Z,19.93
2019-04-30T09:02:42.527Z,17.80
2019-04-30T09:05:15.032Z,20.17
2019-04-30T09:07:44.370Z,18.17
2019-04-30T09:10:15.298Z,21.20
2019-04-30T09:12:44.654Z,18.70
2019-04-30T09:15:14.178Z,17.10
2019-04-30T09:17:58.117Z,14.27
2019-04-30T09:20:16.359Z,13.03
2019-04-30T09:22:46.606Z,12.23
2019-04-30T09:25:19.416Z,10.47
2019-04-30T09:27:48.950Z,10.17
2019-04-30T09:30:19.025Z,8.80
2019-04-30T09:32:49.940Z,17.70
2019-04-30T09:35:19.717Z,17.23
2019-04-30T09:37:49.634Z,19.70
2019-04-30T09:40:21.183Z,23.23
2019-04-30T09:42:50.847Z,24.73
2019-04-30T09:45:20.318Z,24.27
2019-04-30T09:47:50.580Z,23.77
2019-04-30T09:50:20.241Z,22.50
2019-04-30T09:52:50.135Z,22.23
2019-04-30T09:55:20.026Z,19.40
2019-04-30T09:57:49.320Z,23.07
2019-04-30T10:00:19.493Z,24.70
2019-04-30T10:02:49.055Z,11.50
2019-04-30T10:05:19.861Z,5.57
2019-04-30T10:07:49.911Z,4.00
2019-04-30T10:10:21.525Z,6.13
2019-04-30T10:12:50.840Z,10.67
2019-04-30T10:15:30.848Z,11.30
2019-04-30T10:18:00.337Z,7.90
2019-04-30T10:20:41.241Z,8.57
2019-04-30T10:23:10.611Z,6.77
2019-04-30T10:25:40.128Z,9.43
2019-04-30T10:28:10.095Z,7.90
2019-04-30T10:30:39.985Z,7.60
2019-04-30T10:33:10.117Z,8.43
2019-04-30T10:35:39.587Z,6.17
2019-04-30T10:38:09.893Z,6.20
2019-04-30T10:40:39.738Z,5.00
2019-04-30T10:43:09.371Z,5.53
2019-04-30T10:45:39.094Z,5.97
2019-04-30T10:48:08.606Z,6.13
2019-04-30T10:50:40.767Z,5.57
2019-04-30T10:53:09.527Z,5.43
2019-04-30T10:55:40.112Z,6.20
2019-04-30T10:58:09.515Z,5.47
2019-04-30T11:00:41.203Z,5.13
2019-04-30T11:03:19.598Z,4.43
2019-04-30T11:05:41.775Z,5.17
2019-04-30T11:08:11.316Z,4.83
2019-04-30T11:10:41.112Z,3.87
2019-04-30T11:13:10.686Z,3.73
2019-04-30T11:15:40.086Z,4.40
2019-04-30T11:18:09.813Z,4.33
2019-04-30T11:20:39.808Z,6.37
2019-04-30T11:23:14.478Z,5.40
2019-04-30T11:25:41.837Z,5.03
2019-04-30T11:28:12.462Z,7.07
2019-04-30T11:30:42.609Z,4.70
2019-04-30T11:33:13.159Z,5.57
2019-04-30T11:35:43.669Z,4.97
2019-04-30T11:38:13.038Z,5.70
2019-04-30T11:40:42.716Z,5.90
2019-04-30T11:43:12.091Z,5.40
2019-04-30T11:45:52.858Z,4.90
2019-04-30T11:48:22.578Z,5.03
2019-04-30T11:50:52.043Z,4.80
2019-04-30T11:53:27.575Z,5.23
2019-04-30T11:55:54.053Z,4.80
2019-04-30T11:58:23.485Z,5.13
2019-04-30T12:00:53.163Z,5.40
2019-04-30T12:03:23.970Z,5.40
2019-04-30T12:05:53.425Z,6.10
2019-04-30T12:08:26.512Z,6.27
2019-04-30T12:11:00.956Z,6.30
2019-04-30T12:13:31.271Z,6.33
2019-04-30T12:16:00.898Z,6.70
2019-04-30T12:18:30.317Z,5.80
2019-04-30T12:20:59.696Z,6.20
2019-04-30T12:23:29.062Z,6.90
2019-04-30T12:26:00.948Z,7.33
2019-04-30T12:28:29.727Z,6.53
2019-04-30T12:30:59.171Z,6.97
2019-04-30T12:33:28.625Z,7.10
2019-04-30T12:35:59.571Z,7.70
2019-04-30T12:38:29.841Z,11.77
2019-04-30T12:40:59.477Z,13.00
2019-04-30T12:43:28.860Z,11.60
2019-04-30T12:46:03.503Z,9.53
2019-04-30T12:48:34.683Z,9.27
2019-04-30T12:51:14.995Z,8.30
2019-04-30T12:53:48.765Z,8.90
2019-04-30T12:56:35.871Z,8.40
2019-04-30T12:59:05.458Z,8.00
2019-04-30T13:01:34.890Z,8.90
2019-04-30T13:04:04.380Z,9.20
2019-04-30T13:06:34.395Z,9.93
2019-04-30T13:09:06.534Z,9.60
2019-04-30T13:11:40.087Z,8.33
2019-04-30T13:14:10.339Z,9.00
2019-04-30T13:16:39.943Z,8.10
2019-04-30T13:19:12.947Z,7.97
2019-04-30T13:21:42.380Z,8.43
2019-04-30T13:24:11.798Z,6.80
2019-04-30T13:26:41.362Z,7.43
2019-04-30T13:29:12.401Z,7.47
2019-04-30T13:31:41.766Z,6.23
2019-04-30T13:34:22.043Z,7.50
2019-04-30T13:36:51.566Z,7.17
2019-04-30T13:39:27.014Z,7.00
2019-04-30T13:42:00.625Z,8.00
2019-04-30T13:44:31.639Z,7.47
2019-04-30T13:47:01.029Z,7.70
2019-04-30T13:49:30.503Z,7.67
2019-04-30T13:51:59.867Z,7.77
2019-04-30T13:54:29.292Z,7.20
2019-04-30T13:56:59.161Z,8.00
2019-04-30T13:59:28.576Z,9.43
2019-04-30T14:01:58.813Z,7.77
2019-04-30T14:04:39.016Z,9.30
2019-04-30T14:07:15.769Z,7.63
2019-04-30T14:09:45.101Z,6.73
2019-04-30T14:12:14.696Z,5.90
2019-04-30T14:14:43.974Z,8.10
2019-04-30T14:17:13.470Z,7.93
2019-04-30T14:19:42.875Z,7.43
2019-04-30T14:22:12.589Z,8.57
2019-04-30T14:24:42.025Z,9.10
2019-04-30T14:27:11.619Z,9.00
2019-04-30T14:29:40.996Z,9.67
2019-04-30T14:32:10.465Z,12.27
2019-04-30T14:34:39.942Z,10.33
2019-04-30T14:37:09.371Z,10.47
2019-04-30T14:39:39.029Z,10.10
2019-04-30T14:42:10.598Z,10.20
2019-04-30T14:44:40.611Z,9.77
2019-04-30T14:47:15.653Z,11.60
2019-04-30T14:50:04.398Z,10.67
2019-04-30T14:52:34.171Z,9.90
2019-04-30T14:55:14.366Z,9.60
2019-04-30T14:57:53.386Z,9.77
2019-04-30T15:00:31.981Z,9.63
2019-04-30T15:03:11.969Z,9.00
2019-04-30T15:05:48.551Z,7.77
2019-04-30T15:08:13.910Z,7.90
2019-04-30T15:10:44.745Z,7.97
2019-04-30T15:13:14.112Z,9.23
2019-04-30T15:15:43.445Z,8.10
2019-04-30T15:18:12.994Z,6.60
2019-04-30T15:20:42.450Z,5.97
2019-04-30T15:23:21.762Z,6.40
2019-04-30T15:25:50.594Z,5.87
2019-04-30T15:28:20.695Z,6.17
2019-04-30T15:30:50.166Z,6.93
2019-04-30T15:33:21.167Z,6.33
2019-04-30T15:35:50.702Z,6.57
2019-04-30T15:38:21.652Z,7.73
2019-04-30T15:40:52.680Z,7.90
2019-04-30T15:43:22.242Z,9.00
2019-04-30T15:45:51.722Z,9.53
2019-04-30T15:48:21.217Z,9.27
2019-04-30T15:50:50.650Z,9.47
2019-04-30T15:53:20.045Z,10.10
2019-04-30T15:55:49.410Z,10.37
2019-04-30T15:58:26.496Z,10.33
2019-04-30T16:00:55.935Z,10.17
2019-04-30T16:03:33.184Z,9.50
2019-04-30T16:06:03.517Z,9.20
2019-04-30T16:08:34.703Z,9.73
2019-04-30T16:11:20.637Z,10.17
2019-04-30T16:13:51.634Z,7.60
2019-04-30T16:16:21.298Z,5.63
2019-04-30T16:18:50.745Z,5.63
2019-04-30T16:21:20.142Z,5.73
2019-04-30T16:23:49.443Z,5.10
2019-04-30T16:26:18.943Z,4.20
2019-04-30T16:28:49.527Z,3.83
2019-04-30T16:31:20.523Z,4.20
2019-04-30T16:33:50.018Z,4.43
2019-04-30T16:36:22.558Z,5.43
2019-04-30T16:38:51.916Z,5.50
2019-04-30T16:41:31.194Z,5.53
2019-04-30T16:43:53.857Z,5.70
2019-04-30T16:46:23.320Z,7.10
2019-04-30T16:48:52.705Z,7.33
2019-04-30T16:51:22.052Z,8.23
2019-04-30T16:53:51.333Z,6.53
2019-04-30T16:56:20.780Z,7.67
2019-04-30T16:59:03.564Z,9.30
2019-04-30T17:01:34.608Z,9.57
2019-04-30T17:04:16.104Z,8.70
2019-04-30T17:07:03.799Z,11.70
2019-04-30T17:09:34.870Z,10.43
2019-04-30T17:12:08.800Z,10.63
2019-04-30T17:14:39.732Z,8.90
2019-04-30T17:17:09.059Z,9.83
2019-04-30T17:19:40.009Z,9.57
2019-04-30T17:22:09.381Z,14.17
2019-04-30T17:24:39.449Z,14.57
2019-04-30T17:27:18.667Z,13.37
2019-04-30T17:29:40.010Z,12.70
2019-04-30T17:32:10.611Z,12.93
2019-04-30T17:34:40.092Z,12.40
2019-04-30T17:37:09.410Z,11.67
2019-04-30T17:39:41.089Z,11.30
2019-04-30T17:42:10.337Z,12.93
2019-04-30T17:44:39.817Z,12.80
2019-04-30T17:47:09.182Z,12.80
2019-04-30T17:49:38.415Z,12.77
2019-04-30T17:52:08.858Z,12.83
2019-04-30T17:54:38.362Z,14.57
2019-04-30T17:57:10.460Z,15.17
2019-04-30T17:59:38.851Z,12.40
2019-04-30T18:02:09.709Z,13.63
2019-04-30T18:04:39.266Z,12.60
2019-04-30T18:07:09.916Z,13.63
2019-04-30T18:09:39.562Z,16.60
2019-04-30T18:12:09.512Z,16.43
2019-04-30T18:14:39.613Z,17.27
2019-04-30T18:17:09.389Z,17.03
2019-04-30T18:19:43.240Z,16.63
2019-04-30T18:22:19.487Z,16.17
2019-04-30T18:24:50.604Z,16.90
2019-04-30T18:27:24.035Z,16.60
2019-04-30T18:29:53.411Z,17.10
2019-04-30T18:32:25.878Z,17.37
2019-04-30T18:34:55.260Z,16.70
2019-04-30T18:37:24.570Z,15.30
2019-04-30T18:39:53.907Z,17.17
2019-04-30T18:42:23.143Z,14.17
2019-04-30T18:44:52.459Z,15.27
2019-04-30T18:47:22.044Z,16.30
2019-04-30T18:49:53.761Z,14.43
2019-04-30T18:52:23.131Z,15.10
2019-04-30T18:54:52.539Z,14.43
2019-04-30T18:57:21.937Z,15.73
2019-04-30T18:59:51.411Z,14.70
2019-04-30T19:02:20.899Z,12.77
2019-04-30T19:04:50.344Z,13.07
2019-04-30T19:07:21.352Z,13.33
2019-04-30T19:09:55.358Z,14.73
2019-04-30T19:12:29.294Z,14.53
2019-04-30T19:15:03.413Z,13.30
2019-04-30T19:17:39.323Z,14.83
2019-04-30T19:20:10.770Z,13.17
2019-04-30T19:22:40.498Z,13.33
2019-04-30T19:25:11.517Z,13.87
2019-04-30T19:27:41.030Z,15.23
2019-04-30T19:30:11.712Z,15.17
2019-04-30T19:32:41.055Z,16.00
2019-04-30T19:35:14.181Z,17.00
2019-04-30T19:37:43.613Z,16.87
2019-04-30T19:40:13.443Z,17.37
2019-04-30T19:42:42.725Z,17.27
2019-04-30T19:45:13.570Z,17.50
2019-04-30T19:47:42.985Z,17.57
2019-04-30T19:50:14.098Z,17.40
2019-04-30T19:52:43.749Z,17.27
2019-04-30T19:55:13.252Z,16.60
2019-04-30T19:57:42.565Z,17.40
2019-04-30T20:00:12.663Z,19.00
2019-04-30T20:02:42.085Z,28.80
2019-04-30T20:05:13.530Z,18.70
2019-04-30T20:07:42.889Z,17.23
2019-04-30T20:10:12.511Z,14.80
2019-04-30T20:12:41.904Z,14.53
2019-04-30T20:15:19.274Z,15.07
2019-04-30T20:17:42.836Z,13.87
2019-04-30T20:20:13.102Z,15.47
2019-04-30T20:22:42.560Z,15.13
2019-04-30T20:25:11.962Z,16.07
2019-04-30T20:27:41.382Z,14.40
2019-04-30T20:30:11.450Z,16.53
2019-04-30T20:32:40.929Z,12.70
2019-04-30T20:35:10.368Z,19.67
2019-04-30T20:37:59.453Z,20.97
2019-04-30T20:40:42.677Z,13.17
2019-04-30T20:43:01.604Z,12.60
2019-04-30T20:45:31.027Z,12.60
2019-04-30T20:48:00.501Z,11.57
2019-04-30T20:50:29.829Z,13.00
2019-04-30T20:52:59.282Z,12.23
2019-04-30T20:55:28.753Z,12.57
2019-04-30T20:57:59.495Z,11.30
2019-04-30T21:00:29.030Z,11.63
2019-04-30T21:02:59.833Z,12.30
2019-04-30T21:05:29.476Z,12.57
2019-04-30T21:07:59.064Z,12.80
2019-04-30T21:10:29.671Z,12.63
2019-04-30T21:12:59.090Z,11.90
2019-04-30T21:15:29.729Z,12.23
2019-04-30T21:17:59.440Z,12.73
2019-04-30T21:20:29.089Z,13.70
2019-04-30T21:22:59.635Z,13.10
2019-04-30T21:25:29.375Z,14.10
2019-04-30T21:27:59.946Z,12.90
2019-04-30T21:30:29.706Z,12.03
2019-04-30T21:33:18.963Z,12.70
2019-04-30T21:35:50.793Z,13.57
2019-04-30T21:38:20.424Z,12.33
2019-04-30T21:40:49.824Z,12.03
2019-04-30T21:43:19.129Z,12.73
2019-04-30T21:45:49.382Z,12.70
2019-04-30T21:48:19.263Z,12.50
2019-04-30T21:50:49.769Z,12.77
2019-04-30T21:53:19.653Z,12.57
2019-04-30T21:55:50.829Z,13.70
2019-04-30T21:58:20.607Z,13.40
2019-04-30T22:00:54.590Z,13.30
2019-04-30T22:03:24.079Z,13.70
2019-04-30T22:05:53.375Z,13.00
2019-04-30T22:08:22.756Z,13.40
2019-04-30T22:10:52.345Z,12.97
2019-04-30T22:13:21.777Z,13.17
2019-04-30T22:15:51.195Z,13.77
2019-04-30T22:18:20.651Z,13.77
2019-04-30T22:20:49.957Z,13.73
2019-04-30T22:23:19.288Z,13.80
2019-04-30T22:25:49.130Z,14.57
2019-04-30T22:28:18.422Z,14.07
2019-04-30T22:30:48.333Z,12.70
2019-04-30T22:33:19.406Z,14.37
2019-04-30T22:35:53.237Z,14.00
2019-04-30T22:38:24.274Z,15.30
2019-04-30T22:40:53.647Z,12.77
2019-04-30T22:43:23.078Z,13.20
2019-04-30T22:46:11.974Z,13.30
2019-04-30T22:48:41.357Z,13.40
2019-04-30T22:51:10.727Z,13.97
2019-04-30T22:53:40.152Z,12.87
2019-04-30T22:56:09.614Z,13.70
2019-04-30T22:58:39.262Z,12.03
2019-04-30T23:01:26.760Z,13.47
2019-04-30T23:04:12.584Z,12.30
2019-04-30T23:06:41.983Z,12.00
2019-04-30T23:09:13.488Z,11.40
2019-04-30T23:11:42.880Z,11.50
2019-04-30T23:14:12.270Z,11.13
2019-04-30T23:16:41.708Z,10.73
2019-04-30T23:19:11.022Z,12.00
2019-04-30T23:21:40.712Z,11.10
2019-04-30T23:24:10.219Z,10.70
2019-04-30T23:26:39.745Z,9.90
2019-04-30T23:29:09.052Z,11.93
2019-04-30T23:31:40.735Z,10.33
2019-04-30T23:34:17.812Z,9.97
2019-04-30T23:36:41.138Z,11.13
2019-04-30T23:39:11.417Z,10.10
2019-04-30T23:41:40.810Z,11.03
2019-04-30T23:44:10.299Z,14.53
2019-04-30T23:46:39.686Z,16.37
2019-04-30T23:49:09.121Z,11.70
2019-04-30T23:51:38.478Z,11.63
2019-04-30T23:54:07.782Z,9.97
2019-04-30T23:56:37.252Z,10.97
2019-04-30T23:59:06.618Z,10.27
